Toronto, Ontario

6:30 AM EDT en Junio 28, 2017 (GMT -0400)
Rapids Queen at QCYC | | Change Station

Alt 252 ft 43.63 °N, 79.36 °W | Updated 5 minutes ago

Clear
Despejado
58.2 ° F
Sensación térmica 58.2 ° F
N
6.0
Viento Variable Viento desde SO

Hoy
Alta -- | Baja -- ° F
--% Posibilidad de precipitaciones
Ayer
Alta -- | Baja -- ° F
Precip. -- pul
Presión 30.05 pul
Visibilidad 9.0 Millas
Nubes Despejado
Punto de rocío 27 ° F
Humedad 30%
Precipitaciones 0.00 pul
Espesor de la nieve No disponible.
5:38 AM 9:02 PM
Creciente, 24% visible
METAR CYTZ 281000Z AUTO 26004KT 9SM CLR 11/10 A3004 RMK SLP175
Presión 30.05 pul
Visibilidad 9.0 Millas
Nubes Despejado
Punto de rocío 27 ° F
Humedad 30%
Precipitaciones 0.00 pul
Espesor de la nieve No disponible.
5:38 AM 9:02 PM
Creciente, 24% visible
METAR CYTZ 281000Z AUTO 26004KT 9SM CLR 11/10 A3004 RMK SLP175

Get Severe Weather Alerts

Thanks for signing up!

Be on the lookout for a verification email in your inbox.

You'll start receiving the daily forecast at 6 AM.

×

10-Day Weather Forecast

Almanac

Astronomía

Jun. 28, 2017 Salida Puesta
Hora real
Crepúsculo civil
Crepúsculo náutico
Crepúsculo astronómico
Luna
Horas de luz
Horas de luz
Tomorrow will be .
, % of the Moon is Illuminated

Extremos de hoy

Máximos del país Bajas del país

Community

WunderPhotos

Category 6

Welcome to Category 6. This is the collective home for Weather Underground's featured writeups by Dr. Jeff Masters (right), Bob Henson (left), Chris Burt, and other regular contributors.

Nearby

Calidad del aire

  Calidad del aire Índice AQ Contaminante
Not available.

Grosos de nieve

Estación Profundido Altura

Actividad de terremotos

Ciudad Distance Mag. Tiempo y dato
Magnitud mínima muestra es 2,5.

Temperaturas de aguas costeras

Lugar Temperatura

Stations

Estaciones meteorológicas cercanas

Ubicación de la estación Temp. Vientos helados Punto de rocío Humedad Viento Precip. Alt Actualizado Tipo
                   

Watches & Warnings

There are currently no watches in effect.